Time;durP1;ratioP1;P1;durP2;ratioP2;P2;SDS_P1;SDS_P2;PMS_P1;PMS_P2;Temp;Humidity;BMP_temperature;BMP_pressure;BME280_temperature;BME280_humidity;BME280_pressure;Samples;Min_cycle;Max_cycle;Signal;HPM_P1;HPM_P2
2022/03/13 00:00:49;;;;;;;5.40;4.05;;;;;;;;;;5040359;28;20071;-65
2022/03/13 00:03:16;;;;;;;4.95;4.20;;;;;;;;;;5039209;28;20021;-65
2022/03/13 00:05:45;;;;;;;5.10;4.57;;;;;;;;;;5039540;28;20063;-64
2022/03/13 00:08:19;;;;;;;4.75;3.92;;;;;;;;;;5041775;28;20085;-65
2022/03/13 00:10:47;;;;;;;5.20;4.45;;;;;;;;;;5042744;28;20479;-65
2022/03/13 00:13:14;;;;;;;4.53;4.03;;;;;;;;;;5039049;28;20128;-65
2022/03/13 00:15:40;;;;;;;4.45;3.50;;;;;;;;;;5043485;28;20478;-65
2022/03/13 00:18:08;;;;;;;4.20;3.80;;;;;;;;;;5041859;28;20036;-66
2022/03/13 00:20:35;;;;;;;5.25;4.53;;;;;;;;;;5037116;28;20025;-66
2022/03/13 00:23:01;;;;;;;4.93;4.03;;;;;;;;;;5039095;28;20032;-65
2022/03/13 00:25:26;;;;;;;4.60;4.15;;;;;;;;;;5039088;28;20025;-64
2022/03/13 00:27:52;;;;;;;5.82;4.50;;;;;;;;;;5037073;28;20025;-65
2022/03/13 00:30:17;;;;;;;5.72;4.10;;;;;;;;;;5038442;28;20025;-65
2022/03/13 00:32:43;;;;;;;5.72;5.13;;;;;;;;;;5039105;28;20551;-65
2022/03/13 00:35:08;;;;;;;4.82;3.90;;;;;;;;;;5037044;28;20025;-65
2022/03/13 00:37:34;;;;;;;6.15;4.65;;;;;;;;;;5038719;28;20248;-66
2022/03/13 00:40:01;;;;;;;6.60;5.20;;;;;;;;;;5040991;28;20404;-65
2022/03/13 00:42:27;;;;;;;7.03;5.75;;;;;;;;;;5037273;28;20742;-64
2022/03/13 00:44:52;;;;;;;5.07;4.53;;;;;;;;;;5041887;28;20017;-65
2022/03/13 00:47:18;;;;;;;5.47;4.63;;;;;;;;;;5040493;28;20009;-65
2022/03/13 00:49:45;;;;;;;5.35;4.82;;;;;;;;;;5021837;28;20495;-65
2022/03/13 00:52:10;;;;;;;5.65;4.50;;;;;;;;;;5039324;28;20156;-65
2022/03/13 00:54:35;;;;;;;5.93;4.07;;;;;;;;;;5039979;28;20200;-64
2022/03/13 00:57:01;;;;;;;5.40;4.20;;;;;;;;;;5037876;28;20151;-65
2022/03/13 00:59:26;;;;;;;5.28;4.15;;;;;;;;;;5039474;28;20503;-64
2022/03/13 01:01:51;;;;;;;4.43;3.92;;;;;;;;;;5041200;28;20017;-65
2022/03/13 01:04:20;;;;;;;5.18;3.97;;;;;;;;;;5039492;28;20478;-65
2022/03/13 01:06:46;;;;;;;4.47;4.07;;;;;;;;;;5037107;28;20054;-66
2022/03/13 01:09:11;;;;;;;4.57;3.75;;;;;;;;;;5041187;28;20056;-66
2022/03/13 01:11:37;;;;;;;4.80;3.70;;;;;;;;;;5037170;28;20035;-67
2022/03/13 01:14:02;;;;;;;5.05;4.13;;;;;;;;;;5041804;28;20383;-65
2022/03/13 01:16:33;;;;;;;5.28;3.72;;;;;;;;;;5041425;28;20029;-65
2022/03/13 01:18:58;;;;;;;4.38;3.70;;;;;;;;;;5038632;28;20041;-65
2022/03/13 01:21:25;;;;;;;5.57;4.00;;;;;;;;;;5038734;28;20080;-65
2022/03/13 01:23:59;;;;;;;5.25;3.80;;;;;;;;;;5041713;28;20025;-65
2022/03/13 01:26:24;;;;;;;4.57;3.90;;;;;;;;;;5057408;28;20030;-65
2022/03/13 01:28:53;;;;;;;4.40;3.92;;;;;;;;;;5057381;28;20458;-65
2022/03/13 01:31:24;;;;;;;4.30;3.80;;;;;;;;;;5061277;28;20043;-65
2022/03/13 01:33:49;;;;;;;5.43;4.22;;;;;;;;;;5057642;28;20368;-64
2022/03/13 01:36:14;;;;;;;4.32;3.75;;;;;;;;;;5059630;28;20033;-65
2022/03/13 01:38:40;;;;;;;4.55;3.78;;;;;;;;;;5060338;28;20037;-65
2022/03/13 01:41:06;;;;;;;4.15;3.75;;;;;;;;;;5061407;28;20481;-65
2022/03/13 01:43:31;;;;;;;5.05;4.07;;;;;;;;;;5058215;28;20017;-65
2022/03/13 01:46:00;;;;;;;4.18;3.70;;;;;;;;;;5060749;28;20550;-65
2022/03/13 01:48:26;;;;;;;4.78;3.72;;;;;;;;;;5057420;28;20039;-65
2022/03/13 01:50:52;;;;;;;4.45;3.90;;;;;;;;;;5060362;28;20421;-66
2022/03/13 01:53:20;;;;;;;4.55;4.10;;;;;;;;;;5061482;28;20027;-65
2022/03/13 01:55:46;;;;;;;4.05;3.55;;;;;;;;;;5060072;28;20029;-65
2022/03/13 01:58:12;;;;;;;4.35;3.67;;;;;;;;;;5046412;28;20021;-66
2022/03/13 02:00:37;;;;;;;4.55;3.55;;;;;;;;;;5042401;28;20471;-65
2022/03/13 02:03:02;;;;;;;4.75;3.90;;;;;;;;;;5042474;28;20031;-65
2022/03/13 02:05:29;;;;;;;4.32;3.88;;;;;;;;;;5041007;28;20476;-65
2022/03/13 02:07:55;;;;;;;4.40;3.67;;;;;;;;;;5044308;28;20384;-65
2022/03/13 02:10:20;;;;;;;5.03;3.80;;;;;;;;;;5044759;28;20344;-65
2022/03/13 02:12:47;;;;;;;5.15;3.55;;;;;;;;;;5041294;28;20075;-65
2022/03/13 02:15:12;;;;;;;4.60;3.80;;;;;;;;;;5026514;28;20021;-66
2022/03/13 02:17:38;;;;;;;4.15;3.67;;;;;;;;;;5042873;28;20036;-65
2022/03/13 02:20:11;;;;;;;4.60;3.60;;;;;;;;;;5041766;28;20021;-66
2022/03/13 02:22:37;;;;;;;4.20;3.40;;;;;;;;;;5042887;28;20158;-66
2022/03/13 02:25:02;;;;;;;3.78;3.38;;;;;;;;;;5044040;28;20029;-66
2022/03/13 02:27:29;;;;;;;4.22;3.50;;;;;;;;;;5041048;28;20033;-65
2022/03/13 02:29:55;;;;;;;3.80;3.40;;;;;;;;;;5043807;28;20021;-65
2022/03/13 02:32:23;;;;;;;4.30;3.67;;;;;;;;;;5043477;28;20079;-66
2022/03/13 02:34:49;;;;;;;5.45;3.40;;;;;;;;;;5040507;28;20421;-66
2022/03/13 02:37:22;;;;;;;4.10;3.53;;;;;;;;;;5041180;28;20043;-66
2022/03/13 02:39:48;;;;;;;4.72;3.83;;;;;;;;;;5042202;28;20388;-65
2022/03/13 02:42:13;;;;;;;4.35;3.35;;;;;;;;;;5042016;28;20035;-66
2022/03/13 02:44:38;;;;;;;4.00;3.42;;;;;;;;;;5042629;28;20486;-65
2022/03/13 02:47:04;;;;;;;4.05;3.50;;;;;;;;;;5043687;28;20549;-66
2022/03/13 02:49:30;;;;;;;4.95;3.58;;;;;;;;;;5040349;28;20585;-66
2022/03/13 02:51:57;;;;;;;4.45;3.67;;;;;;;;;;5041804;28;20101;-66
2022/03/13 02:54:23;;;;;;;4.30;3.88;;;;;;;;;;5045023;28;20017;-65
2022/03/13 02:56:49;;;;;;;4.90;3.95;;;;;;;;;;5042284;28;20035;-65
2022/03/13 02:59:14;;;;;;;4.32;3.55;;;;;;;;;;5044837;28;20434;-65
2022/03/13 03:01:40;;;;;;;3.60;3.30;;;;;;;;;;5042204;28;20468;-65
2022/03/13 03:04:05;;;;;;;4.15;3.55;;;;;;;;;;5043586;28;20472;-65
2022/03/13 03:06:32;;;;;;;3.92;3.50;;;;;;;;;;5039696;28;20483;-66
2022/03/13 03:08:57;;;;;;;4.07;3.53;;;;;;;;;;5025681;28;20036;-65
2022/03/13 03:11:22;;;;;;;4.72;3.78;;;;;;;;;;5044175;28;20025;-65
2022/03/13 03:13:48;;;;;;;4.40;3.65;;;;;;;;;;5039886;28;20582;-66
2022/03/13 03:16:13;;;;;;;4.38;3.65;;;;;;;;;;5026498;28;20033;-65
2022/03/13 03:18:39;;;;;;;4.07;3.67;;;;;;;;;;5038185;28;20436;-65
2022/03/13 03:21:04;;;;;;;4.45;3.50;;;;;;;;;;5040713;28;20013;-65
2022/03/13 03:23:30;;;;;;;4.18;3.60;;;;;;;;;;5042851;28;20025;-65
2022/03/13 03:25:55;;;;;;;4.30;3.70;;;;;;;;;;5042290;28;20452;-65
2022/03/13 03:28:22;;;;;;;4.93;4.03;;;;;;;;;;5041265;28;20508;-66
2022/03/13 03:30:47;;;;;;;5.30;3.90;;;;;;;;;;5040332;28;20409;-64
2022/03/13 03:33:13;;;;;;;5.35;4.05;;;;;;;;;;5040377;28;20029;-65
2022/03/13 03:35:38;;;;;;;4.55;4.05;;;;;;;;;;5039958;28;20060;-65
2022/03/13 03:38:03;;;;;;;5.15;4.05;;;;;;;;;;5042527;28;20455;-65
2022/03/13 03:40:30;;;;;;;6.25;3.75;;;;;;;;;;5042505;28;20132;-66
2022/03/13 03:42:56;;;;;;;5.75;3.88;;;;;;;;;;5039934;28;20023;-66
2022/03/13 03:45:22;;;;;;;4.95;3.85;;;;;;;;;;5043832;28;20025;-66
2022/03/13 03:47:48;;;;;;;6.53;3.95;;;;;;;;;;5040933;28;20021;-64
2022/03/13 03:50:14;;;;;;;4.75;4.00;;;;;;;;;;5038821;28;20056;-66
2022/03/13 03:52:39;;;;;;;5.95;4.35;;;;;;;;;;5039747;28;20028;-65
2022/03/13 03:55:04;;;;;;;5.55;4.60;;;;;;;;;;5042479;28;20025;-65
2022/03/13 03:57:30;;;;;;;4.47;4.07;;;;;;;;;;5041138;28;20040;-66
2022/03/13 03:59:55;;;;;;;5.70;4.07;;;;;;;;;;5039608;28;20061;-66
2022/03/13 04:02:21;;;;;;;5.25;4.50;;;;;;;;;;5041009;28;20391;-66
2022/03/13 04:04:46;;;;;;;4.80;4.05;;;;;;;;;;5039775;28;20546;-64
2022/03/13 04:07:11;;;;;;;5.15;4.00;;;;;;;;;;5039204;28;20387;-65
2022/03/13 04:09:37;;;;;;;5.22;3.92;;;;;;;;;;5040215;28;20119;-65
2022/03/13 04:12:07;;;;;;;5.15;4.20;;;;;;;;;;5039837;28;20029;-65
2022/03/13 04:14:34;;;;;;;5.25;3.92;;;;;;;;;;5042310;28;20059;-66
2022/03/13 04:16:59;;;;;;;4.35;3.95;;;;;;;;;;5038580;28;20444;-66
2022/03/13 04:19:27;;;;;;;5.15;3.95;;;;;;;;;;5038835;28;20468;-67
2022/03/13 04:21:53;;;;;;;6.28;4.10;;;;;;;;;;5036458;28;20013;-65
2022/03/13 04:24:18;;;;;;;4.35;3.95;;;;;;;;;;5042595;28;20025;-64
2022/03/13 04:26:44;;;;;;;4.90;3.58;;;;;;;;;;5039979;28;20024;-64
2022/03/13 04:29:10;;;;;;;5.20;3.63;;;;;;;;;;5041396;28;20028;-65
2022/03/13 04:31:39;;;;;;;6.22;4.22;;;;;;;;;;5040967;28;20099;-67
2022/03/13 04:34:05;;;;;;;4.18;3.78;;;;;;;;;;5040300;28;20395;-68
2022/03/13 04:36:33;;;;;;;4.25;3.85;;;;;;;;;;5038895;28;20447;-66
2022/03/13 04:38:59;;;;;;;4.13;3.70;;;;;;;;;;5039987;28;20020;-67
2022/03/13 04:41:25;;;;;;;4.55;3.72;;;;;;;;;;5041120;28;20387;-66
2022/03/13 04:43:51;;;;;;;5.30;4.00;;;;;;;;;;5040830;28;20017;-66
2022/03/13 04:46:16;;;;;;;4.00;3.60;;;;;;;;;;5041478;28;20049;-66
2022/03/13 04:48:42;;;;;;;4.38;3.97;;;;;;;;;;5037275;28;20088;-65
2022/03/13 04:51:07;;;;;;;5.30;3.97;;;;;;;;;;5039776;28;20090;-65
2022/03/13 04:53:33;;;;;;;4.63;4.03;;;;;;;;;;5040366;28;20119;-65
2022/03/13 04:55:59;;;;;;;6.38;5.00;;;;;;;;;;5039954;28;20053;-64
2022/03/13 04:58:24;;;;;;;4.75;4.13;;;;;;;;;;5040887;28;20391;-64
2022/03/13 05:00:50;;;;;;;5.18;4.30;;;;;;;;;;5041166;28;20086;-65
2022/03/13 05:03:15;;;;;;;5.10;4.55;;;;;;;;;;5037711;28;20025;-65
2022/03/13 05:05:41;;;;;;;5.63;4.50;;;;;;;;;;5038717;28;20112;-64
2022/03/13 05:08:13;;;;;;;5.22;4.72;;;;;;;;;;5041293;28;20033;-65
2022/03/13 05:10:39;;;;;;;5.68;4.40;;;;;;;;;;5040494;28;20024;-64
2022/03/13 05:13:05;;;;;;;5.57;4.72;;;;;;;;;;5037980;28;20084;-65
2022/03/13 05:15:31;;;;;;;4.80;4.15;;;;;;;;;;5042396;28;20081;-65
2022/03/13 05:17:56;;;;;;;5.47;4.88;;;;;;;;;;5038512;28;20025;-65
2022/03/13 05:20:21;;;;;;;4.90;4.32;;;;;;;;;;5039603;28;20459;-65
2022/03/13 05:22:47;;;;;;;6.07;4.80;;;;;;;;;;5039002;28;20065;-67
2022/03/13 05:25:12;;;;;;;6.25;5.15;;;;;;;;;;5039982;28;20059;-66
2022/03/13 05:27:39;;;;;;;5.10;4.60;;;;;;;;;;5039975;28;20032;-65
2022/03/13 05:30:04;;;;;;;5.53;4.90;;;;;;;;;;5023571;28;20036;-66
2022/03/13 05:32:30;;;;;;;5.70;4.97;;;;;;;;;;5042600;28;20032;-64
2022/03/13 05:34:57;;;;;;;5.47;4.85;;;;;;;;;;5041960;28;20025;-64
2022/03/13 05:37:22;;;;;;;5.32;4.80;;;;;;;;;;5041492;28;20025;-65
2022/03/13 05:39:47;;;;;;;5.35;4.82;;;;;;;;;;5042621;28;20021;-65
2022/03/13 05:42:13;;;;;;;6.65;5.53;;;;;;;;;;5043535;28;20025;-65
2022/03/13 05:44:40;;;;;;;6.55;5.10;;;;;;;;;;5043690;28;20052;-65
2022/03/13 05:47:05;;;;;;;6.28;5.30;;;;;;;;;;5043874;28;20031;-66
2022/03/13 05:49:30;;;;;;;6.13;5.32;;;;;;;;;;5043112;28;20057;-66
2022/03/13 05:51:56;;;;;;;6.10;5.28;;;;;;;;;;5046631;28;20099;-64
2022/03/13 05:54:21;;;;;;;6.25;5.28;;;;;;;;;;5046596;28;20033;-65
2022/03/13 05:56:46;;;;;;;7.05;5.60;;;;;;;;;;5040896;28;20047;-65
2022/03/13 05:59:11;;;;;;;7.65;5.53;;;;;;;;;;5045063;28;20421;-64
2022/03/13 06:01:38;;;;;;;6.55;5.70;;;;;;;;;;5027163;28;20025;-65
2022/03/13 06:04:03;;;;;;;6.55;5.68;;;;;;;;;;5041327;28;20505;-66
2022/03/13 06:06:32;;;;;;;7.78;5.70;;;;;;;;;;5042765;28;20103;-66
2022/03/13 06:08:57;;;;;;;6.53;5.85;;;;;;;;;;5043850;28;20052;-64
2022/03/13 06:11:22;;;;;;;6.00;5.40;;;;;;;;;;5045606;28;20442;-65
2022/03/13 06:13:47;;;;;;;6.75;6.05;;;;;;;;;;5040539;28;20028;-65
2022/03/13 06:16:13;;;;;;;7.22;5.70;;;;;;;;;;5042980;28;20025;-64
2022/03/13 06:18:39;;;;;;;7.78;6.20;;;;;;;;;;5042140;28;20036;-65
2022/03/13 06:21:05;;;;;;;10.38;6.82;;;;;;;;;;5041603;28;20200;-65
2022/03/13 06:23:30;;;;;;;8.55;6.57;;;;;;;;;;5045609;28;20021;-66
2022/03/13 06:25:59;;;;;;;7.45;6.22;;;;;;;;;;5044421;28;20025;-65
2022/03/13 06:28:24;;;;;;;7.82;6.78;;;;;;;;;;5041142;28;20032;-65
2022/03/13 06:30:49;;;;;;;8.52;6.30;;;;;;;;;;5045267;28;20029;-65
2022/03/13 06:33:15;;;;;;;9.50;7.10;;;;;;;;;;5043012;28;20116;-64
2022/03/13 06:35:40;;;;;;;7.90;7.03;;;;;;;;;;5043308;28;20247;-65
2022/03/13 06:38:06;;;;;;;8.95;6.75;;;;;;;;;;5051531;28;20036;-66
2022/03/13 06:40:31;;;;;;;8.13;6.50;;;;;;;;;;5063343;28;20016;-67
2022/03/13 06:42:56;;;;;;;8.05;7.10;;;;;;;;;;5059992;28;20016;-66
2022/03/13 06:45:22;;;;;;;9.57;7.82;;;;;;;;;;5063576;28;20471;-66
2022/03/13 06:47:51;;;;;;;8.55;7.43;;;;;;;;;;5045133;28;20025;-67
2022/03/13 06:50:17;;;;;;;8.80;7.35;;;;;;;;;;5062578;28;20074;-66
2022/03/13 06:52:47;;;;;;;8.95;7.82;;;;;;;;;;5069236;28;20377;-65
2022/03/13 06:55:13;;;;;;;9.27;8.27;;;;;;;;;;5068182;28;20044;-67
2022/03/13 06:57:38;;;;;;;10.10;8.60;;;;;;;;;;5069050;28;20020;-67
2022/03/13 07:00:04;;;;;;;9.98;8.98;;;;;;;;;;5063778;28;20034;-67
2022/03/13 07:02:29;;;;;;;10.40;8.77;;;;;;;;;;5064016;28;20467;-66
2022/03/13 07:04:55;;;;;;;10.30;9.20;;;;;;;;;;5061814;28;20025;-66
2022/03/13 07:07:20;;;;;;;10.55;9.32;;;;;;;;;;5061806;28;20016;-66
2022/03/13 07:09:46;;;;;;;12.48;10.00;;;;;;;;;;5062958;28;20028;-65
2022/03/13 07:12:11;;;;;;;11.52;9.73;;;;;;;;;;5058123;28;20518;-66
2022/03/13 07:14:46;;;;;;;11.75;10.40;;;;;;;;;;5064155;28;20028;-66
2022/03/13 07:17:12;;;;;;;13.50;10.82;;;;;;;;;;5060324;28;20032;-66
2022/03/13 07:19:37;;;;;;;12.32;10.98;;;;;;;;;;5063139;28;20382;-66
2022/03/13 07:22:03;;;;;;;14.57;11.38;;;;;;;;;;5060118;28;20070;-66
2022/03/13 07:24:28;;;;;;;13.05;11.10;;;;;;;;;;5063616;28;20032;-66
2022/03/13 07:26:53;;;;;;;15.55;12.07;;;;;;;;;;5060110;28;20304;-66
2022/03/13 07:29:19;;;;;;;13.82;11.82;;;;;;;;;;5043940;28;20029;-65
2022/03/13 07:31:44;;;;;;;16.10;12.23;;;;;;;;;;5064080;28;20035;-66
2022/03/13 07:34:09;;;;;;;16.40;12.35;;;;;;;;;;5062387;28;20430;-65
2022/03/13 07:36:35;;;;;;;15.95;12.98;;;;;;;;;;5047158;28;20056;-65
2022/03/13 07:39:01;;;;;;;15.82;13.38;;;;;;;;;;5041195;28;20107;-66
2022/03/13 07:41:27;;;;;;;16.52;14.10;;;;;;;;;;5042264;28;20403;-66
2022/03/13 07:43:52;;;;;;;15.93;13.55;;;;;;;;;;5023443;28;20021;-65
2022/03/13 07:46:18;;;;;;;18.42;13.98;;;;;;;;;;5043055;28;20482;-66
2022/03/13 07:48:44;;;;;;;16.75;14.50;;;;;;;;;;5040429;28;20041;-66
2022/03/13 07:51:10;;;;;;;19.20;15.48;;;;;;;;;;5040979;28;20025;-66
2022/03/13 07:53:35;;;;;;;17.80;15.48;;;;;;;;;;5042292;28;20471;-66
2022/03/13 07:56:00;;;;;;;20.45;15.25;;;;;;;;;;5042918;28;20060;-65
2022/03/13 07:58:25;;;;;;;18.38;15.15;;;;;;;;;;5040523;28;20070;-66
2022/03/13 08:00:51;;;;;;;21.05;17.30;;;;;;;;;;5042922;28;20096;-66
2022/03/13 08:03:28;;;;;;;21.23;17.08;;;;;;;;;;5042449;28;20487;-66
2022/03/13 08:05:53;;;;;;;20.25;16.65;;;;;;;;;;5041078;28;20029;-66
2022/03/13 08:08:19;;;;;;;21.52;17.02;;;;;;;;;;5042145;28;20054;-65
2022/03/13 08:10:44;;;;;;;20.35;17.42;;;;;;;;;;5044100;28;20225;-67
2022/03/13 08:13:09;;;;;;;23.88;18.40;;;;;;;;;;5040107;28;20118;-66
2022/03/13 08:15:35;;;;;;;22.83;17.55;;;;;;;;;;5044039;28;20147;-66
2022/03/13 08:18:00;;;;;;;19.17;16.80;;;;;;;;;;5038725;28;20025;-66
2022/03/13 08:20:25;;;;;;;23.67;18.35;;;;;;;;;;5041034;28;20315;-65
2022/03/13 08:22:51;;;;;;;21.38;18.02;;;;;;;;;;5042268;28;20035;-65
2022/03/13 08:25:19;;;;;;;22.98;18.30;;;;;;;;;;5041892;28;20106;-65
2022/03/13 08:27:48;;;;;;;20.55;16.80;;;;;;;;;;5048532;28;20020;-65
2022/03/13 08:30:13;;;;;;;22.50;17.77;;;;;;;;;;5060852;28;20057;-66
2022/03/13 08:32:39;;;;;;;24.23;18.85;;;;;;;;;;5061966;28;20051;-66
2022/03/13 08:35:08;;;;;;;23.92;17.75;;;;;;;;;;5040361;28;20483;-66
2022/03/13 08:37:34;;;;;;;24.38;18.83;;;;;;;;;;5024048;28;20342;-66
2022/03/13 08:40:03;;;;;;;22.83;17.88;;;;;;;;;;5041075;28;20046;-65
2022/03/13 08:42:30;;;;;;;21.23;18.35;;;;;;;;;;5039775;28;20081;-66
2022/03/13 08:44:56;;;;;;;22.65;18.67;;;;;;;;;;5041916;28;20017;-65
2022/03/13 08:47:21;;;;;;;21.23;18.00;;;;;;;;;;5024866;28;20132;-66
2022/03/13 08:49:47;;;;;;;20.48;17.95;;;;;;;;;;5040742;28;20048;-65
2022/03/13 08:52:12;;;;;;;21.45;18.15;;;;;;;;;;5037934;28;20017;-67
2022/03/13 08:54:37;;;;;;;22.05;18.02;;;;;;;;;;5042415;28;20032;-65
2022/03/13 08:57:03;;;;;;;21.77;18.55;;;;;;;;;;5037572;28;20068;-65
2022/03/13 08:59:34;;;;;;;23.77;18.52;;;;;;;;;;5040981;28;20033;-65
2022/03/13 09:01:59;;;;;;;21.27;18.73;;;;;;;;;;5040114;28;20021;-65
2022/03/13 09:04:26;;;;;;;22.67;18.73;;;;;;;;;;5039260;28;20028;-66
2022/03/13 09:06:51;;;;;;;22.15;16.95;;;;;;;;;;5039899;28;20128;-66
2022/03/13 09:09:19;;;;;;;20.35;17.77;;;;;;;;;;5047871;28;20126;-66
2022/03/13 09:11:45;;;;;;;21.08;18.88;;;;;;;;;;5042398;28;20024;-66
2022/03/13 09:14:11;;;;;;;23.58;19.58;;;;;;;;;;5036449;28;20389;-65
2022/03/13 09:16:38;;;;;;;22.35;19.05;;;;;;;;;;5037072;28;20109;-66
2022/03/13 09:19:03;;;;;;;22.48;18.00;;;;;;;;;;5035829;28;20121;-66
2022/03/13 09:21:31;;;;;;;22.60;18.13;;;;;;;;;;5048232;28;20111;-65
2022/03/13 09:23:57;;;;;;;20.45;18.02;;;;;;;;;;5067337;28;20016;-65
2022/03/13 09:26:22;;;;;;;19.45;16.15;;;;;;;;;;5062777;28;20035;-66
2022/03/13 09:28:48;;;;;;;17.77;15.23;;;;;;;;;;5061440;28;20032;-66
2022/03/13 09:31:14;;;;;;;17.40;14.40;;;;;;;;;;5061794;28;20387;-66
2022/03/13 09:33:39;;;;;;;17.90;15.02;;;;;;;;;;5065179;28;20511;-65
2022/03/13 09:36:04;;;;;;;16.88;13.95;;;;;;;;;;5060178;28;20108;-65
2022/03/13 09:38:29;;;;;;;15.88;13.88;;;;;;;;;;5027835;28;20387;-67
2022/03/13 09:40:55;;;;;;;17.48;14.90;;;;;;;;;;5063548;28;20354;-66
2022/03/13 09:43:21;;;;;;;17.30;13.93;;;;;;;;;;5061952;28;20561;-67
2022/03/13 09:45:47;;;;;;;14.23;12.32;;;;;;;;;;5064356;28;20438;-66
2022/03/13 09:48:15;;;;;;;15.98;13.77;;;;;;;;;;5064122;28;20089;-67
2022/03/13 09:50:41;;;;;;;17.70;14.82;;;;;;;;;;5064206;28;20051;-66
2022/03/13 09:53:06;;;;;;;17.42;14.60;;;;;;;;;;5060756;28;20036;-65
2022/03/13 09:55:31;;;;;;;17.10;14.85;;;;;;;;;;5064386;28;20043;-66
2022/03/13 09:57:57;;;;;;;16.17;14.48;;;;;;;;;;5061845;28;20570;-66
2022/03/13 10:00:22;;;;;;;16.92;14.63;;;;;;;;;;5062372;28;20868;-65
2022/03/13 10:02:48;;;;;;;17.50;14.77;;;;;;;;;;5062622;28;20088;-66
2022/03/13 10:05:14;;;;;;;16.17;13.90;;;;;;;;;;5060676;28;20173;-65
2022/03/13 10:07:49;;;;;;;15.85;14.15;;;;;;;;;;5062048;28;20364;-64
2022/03/13 10:10:14;;;;;;;15.27;13.40;;;;;;;;;;5062533;28;20078;-66
2022/03/13 10:12:40;;;;;;;16.48;13.52;;;;;;;;;;5062453;28;20287;-67
2022/03/13 10:15:06;;;;;;;15.43;13.65;;;;;;;;;;5063670;28;20123;-66
2022/03/13 10:17:33;;;;;;;15.88;14.23;;;;;;;;;;5063252;28;20025;-66
2022/03/13 10:20:11;;;;;;;18.27;14.48;;;;;;;;;;5058934;28;20021;-66
2022/03/13 10:22:38;;;;;;;15.00;13.48;;;;;;;;;;5063931;28;20039;-66
2022/03/13 10:25:05;;;;;;;16.33;13.68;;;;;;;;;;5044114;28;20320;-66
2022/03/13 10:27:32;;;;;;;16.10;14.48;;;;;;;;;;5057743;28;20029;-66
2022/03/13 10:30:00;;;;;;;17.30;15.50;;;;;;;;;;5043910;28;20078;-66
2022/03/13 10:32:25;;;;;;;15.63;13.02;;;;;;;;;;5042523;28;20472;-66
2022/03/13 10:34:56;;;;;;;15.07;13.50;;;;;;;;;;5042088;28;20025;-66
2022/03/13 10:37:42;;;;;;;17.77;14.38;;;;;;;;;;5042979;28;20033;-66
2022/03/13 10:40:12;;;;;;;16.05;13.77;;;;;;;;;;5040336;28;20025;-65
2022/03/13 10:42:43;;;;;;;14.82;13.13;;;;;;;;;;5041660;28;20021;-66
2022/03/13 10:45:31;;;;;;;15.73;12.85;;;;;;;;;;5043788;28;20052;-67
2022/03/13 10:48:20;;;;;;;14.57;13.05;;;;;;;;;;5042073;28;20363;-66
2022/03/13 10:50:47;;;;;;;14.07;11.85;;;;;;;;;;5043170;28;20041;-65
2022/03/13 10:53:13;;;;;;;14.80;12.55;;;;;;;;;;5039339;28;20090;-66
2022/03/13 10:55:38;;;;;;;13.52;11.68;;;;;;;;;;5043686;28;20025;-65
2022/03/13 10:58:04;;;;;;;14.35;12.85;;;;;;;;;;5042496;28;20065;-66
2022/03/13 11:00:29;;;;;;;12.73;11.38;;;;;;;;;;5042112;28;20463;-66
2022/03/13 11:03:17;;;;;;;13.55;11.07;;;;;;;;;;5042929;28;20657;-67
2022/03/13 11:05:42;;;;;;;13.93;11.50;;;;;;;;;;5042684;28;20503;-66
2022/03/13 11:08:10;;;;;;;14.25;11.82;;;;;;;;;;5041135;28;20476;-66
2022/03/13 11:10:36;;;;;;;15.18;11.98;;;;;;;;;;5044876;28;20036;-66
2022/03/13 11:13:02;;;;;;;15.43;12.63;;;;;;;;;;5038803;28;20029;-66
2022/03/13 11:15:29;;;;;;;14.93;12.15;;;;;;;;;;5041234;28;20044;-67
2022/03/13 11:17:57;;;;;;;13.13;11.82;;;;;;;;;;5042383;28;20392;-66
2022/03/13 11:20:23;;;;;;;12.25;10.60;;;;;;;;;;5037942;28;20028;-67
2022/03/13 11:22:49;;;;;;;13.13;11.73;;;;;;;;;;5039790;28;20017;-67
2022/03/13 11:25:15;;;;;;;14.90;13.30;;;;;;;;;;5034548;28;20365;-65
2022/03/13 11:27:42;;;;;;;17.10;14.75;;;;;;;;;;5047406;28;20236;-66
2022/03/13 11:30:26;;;;;;;15.00;13.07;;;;;;;;;;5062457;28;20624;-67
2022/03/13 11:32:51;;;;;;;17.40;14.70;;;;;;;;;;5062516;28;20504;-66
2022/03/13 11:35:17;;;;;;;15.38;13.70;;;;;;;;;;5059928;28;20048;-66
2022/03/13 11:37:49;;;;;;;17.30;13.32;;;;;;;;;;5060839;28;20108;-66
2022/03/13 11:40:16;;;;;;;15.95;13.68;;;;;;;;;;5060892;28;20095;-67
2022/03/13 11:42:56;;;;;;;17.20;13.52;;;;;;;;;;5044349;28;20019;-65
2022/03/13 11:45:27;;;;;;;16.23;14.02;;;;;;;;;;5052935;28;20025;-65
2022/03/13 11:47:52;;;;;;;18.23;13.95;;;;;;;;;;5059506;28;20016;-66
2022/03/13 11:50:17;;;;;;;14.25;12.75;;;;;;;;;;5052637;28;20037;-65
2022/03/13 11:52:42;;;;;;;14.25;12.63;;;;;;;;;;5061856;28;20032;-66
2022/03/13 11:55:12;;;;;;;15.80;14.10;;;;;;;;;;5060405;28;20360;-66
2022/03/13 11:57:42;;;;;;;17.52;14.43;;;;;;;;;;5057582;28;20020;-67
2022/03/13 12:00:07;;;;;;;13.75;12.32;;;;;;;;;;5062078;28;20017;-67
2022/03/13 12:02:41;;;;;;;14.82;12.98;;;;;;;;;;5059691;28;20571;-66
2022/03/13 12:05:28;;;;;;;15.07;13.43;;;;;;;;;;5061001;28;20063;-67
2022/03/13 12:08:08;;;;;;;13.48;12.07;;;;;;;;;;5060052;28;20017;-66
2022/03/13 12:10:43;;;;;;;12.27;10.98;;;;;;;;;;5062221;28;20021;-65
2022/03/13 12:13:13;;;;;;;14.38;11.50;;;;;;;;;;5061463;28;20037;-67
2022/03/13 12:15:40;;;;;;;12.50;10.50;;;;;;;;;;5062061;28;20020;-68
2022/03/13 12:18:15;;;;;;;10.93;9.25;;;;;;;;;;5059960;28;20111;-66
2022/03/13 12:20:42;;;;;;;11.43;9.55;;;;;;;;;;5057457;28;20055;-67
2022/03/13 12:23:07;;;;;;;11.25;9.75;;;;;;;;;;5022254;28;20118;-66
2022/03/13 12:25:32;;;;;;;11.40;8.40;;;;;;;;;;5040364;28;20971;-66
2022/03/13 12:28:00;;;;;;;9.55;8.55;;;;;;;;;;5039731;28;20568;-66
2022/03/13 12:30:26;;;;;;;10.25;8.70;;;;;;;;;;5041038;28;20093;-67
2022/03/13 12:32:58;;;;;;;9.68;8.38;;;;;;;;;;5040770;28;20036;-65
2022/03/13 12:35:24;;;;;;;8.55;7.63;;;;;;;;;;5037257;28;20105;-65
2022/03/13 12:37:55;;;;;;;7.32;6.38;;;;;;;;;;5039844;28;20033;-65
2022/03/13 12:40:21;;;;;;;11.23;6.47;;;;;;;;;;5040944;28;20063;-65
2022/03/13 12:42:52;;;;;;;8.45;6.68;;;;;;;;;;5040030;28;20079;-65
2022/03/13 12:45:18;;;;;;;7.18;6.47;;;;;;;;;;5042267;28;20054;-65
2022/03/13 12:47:47;;;;;;;9.77;7.93;;;;;;;;;;5024644;28;20402;-66
2022/03/13 12:50:13;;;;;;;10.02;7.50;;;;;;;;;;5041538;28;20029;-67
2022/03/13 12:52:40;;;;;;;8.25;7.38;;;;;;;;;;5039517;28;20309;-66
2022/03/13 12:55:06;;;;;;;7.30;6.32;;;;;;;;;;5041153;28;20016;-66
2022/03/13 12:57:33;;;;;;;7.78;5.82;;;;;;;;;;5038704;28;20021;-64
2022/03/13 12:59:58;;;;;;;6.90;5.63;;;;;;;;;;5042393;28;20037;-66
2022/03/13 13:02:26;;;;;;;6.05;5.35;;;;;;;;;;5039336;28;20486;-66
2022/03/13 13:04:51;;;;;;;6.50;5.78;;;;;;;;;;5042860;28;20071;-67
2022/03/13 13:07:17;;;;;;;7.25;5.78;;;;;;;;;;5039133;28;20013;-66
2022/03/13 13:09:44;;;;;;;6.50;5.72;;;;;;;;;;5020855;28;20032;-67
2022/03/13 13:12:10;;;;;;;6.78;6.15;;;;;;;;;;5037417;28;20126;-65
2022/03/13 13:14:37;;;;;;;6.80;5.80;;;;;;;;;;5043378;28;20596;-64
2022/03/13 13:17:09;;;;;;;8.25;6.40;;;;;;;;;;5042621;28;20041;-66
2022/03/13 13:19:45;;;;;;;10.25;7.03;;;;;;;;;;5040251;28;20024;-66
2022/03/13 13:22:11;;;;;;;15.10;6.50;;;;;;;;;;5039043;28;20029;-66
2022/03/13 13:24:56;;;;;;;6.93;6.18;;;;;;;;;;5040499;28;20257;-66
2022/03/13 13:27:30;;;;;;;7.22;5.95;;;;;;;;;;5036044;28;20090;-66
2022/03/13 13:29:55;;;;;;;9.30;6.05;;;;;;;;;;5041974;28;20352;-66
2022/03/13 13:32:22;;;;;;;7.85;6.25;;;;;;;;;;5039063;28;20035;-66
2022/03/13 13:35:16;;;;;;;7.00;6.30;;;;;;;;;;5023400;28;20116;-66
2022/03/13 13:37:59;;;;;;;7.18;5.85;;;;;;;;;;5038706;28;20213;-66
2022/03/13 13:40:26;;;;;;;5.88;5.30;;;;;;;;;;5041353;28;20126;-65
2022/03/13 13:42:55;;;;;;;7.43;5.65;;;;;;;;;;5050041;28;20012;-66
2022/03/13 13:45:26;;;;;;;6.53;5.82;;;;;;;;;;5061929;28;20592;-66
2022/03/13 13:47:52;;;;;;;6.07;5.47;;;;;;;;;;5061800;28;20605;-66
2022/03/13 13:50:21;;;;;;;6.75;5.18;;;;;;;;;;5060511;28;20107;-66
2022/03/13 13:53:01;;;;;;;5.72;5.13;;;;;;;;;;5042191;28;20108;-66
2022/03/13 13:55:26;;;;;;;5.93;5.05;;;;;;;;;;5063910;28;20035;-66
2022/03/13 13:58:10;;;;;;;6.10;5.50;;;;;;;;;;5062968;28;20490;-66
2022/03/13 14:00:36;;;;;;;5.72;4.88;;;;;;;;;;5062871;28;20032;-66
2022/03/13 14:03:01;;;;;;;6.20;4.68;;;;;;;;;;5065231;28;20028;-67
2022/03/13 14:05:26;;;;;;;6.00;5.40;;;;;;;;;;5061631;28;20024;-67
2022/03/13 14:07:52;;;;;;;5.70;4.70;;;;;;;;;;5064967;28;20025;-66
2022/03/13 14:10:17;;;;;;;5.18;4.53;;;;;;;;;;5063980;28;20065;-67
2022/03/13 14:12:47;;;;;;;4.72;4.22;;;;;;;;;;5053639;28;20598;-66
2022/03/13 14:15:12;;;;;;;6.00;4.40;;;;;;;;;;5045780;28;20060;-66
2022/03/13 14:17:37;;;;;;;4.28;3.88;;;;;;;;;;5043739;28;20067;-66
2022/03/13 14:20:04;;;;;;;5.65;4.85;;;;;;;;;;5041660;28;20032;-66
2022/03/13 14:22:33;;;;;;;5.63;5.10;;;;;;;;;;5040927;28;20543;-67
2022/03/13 14:24:58;;;;;;;6.07;4.60;;;;;;;;;;5043467;28;20017;-66
2022/03/13 14:27:26;;;;;;;4.85;4.32;;;;;;;;;;5042427;28;20029;-67
2022/03/13 14:29:51;;;;;;;5.00;4.60;;;;;;;;;;5043623;28;20108;-66
2022/03/13 14:32:17;;;;;;;5.85;4.82;;;;;;;;;;5043349;28;20123;-65